Time;durP1;ratioP1;P1;durP2;ratioP2;P2;SDS_P1;SDS_P2;PMS_P1;PMS_P2;Temp;Humidity;BMP_temperature;BMP_pressure;BME280_temperature;BME280_humidity;BME280_pressure;Samples;Min_cycle;Max_cycle;Signal;HPM_P1;HPM_P2
2020/12/25 00:02:11;;;;;;;1.35;1.25;;;6.20;79.90;;;5.26;63.68;94185.44;5074557;28;20206;-78
2020/12/25 00:04:38;;;;;;;1.27;1.20;;;6.20;79.90;;;5.26;63.75;94198.44;5073524;28;20222;-79
2020/12/25 00:07:05;;;;;;;1.25;1.15;;;6.20;79.90;;;5.26;64.00;94200.19;5074396;28;20198;-79
2020/12/25 00:09:34;;;;;;;1.30;1.30;;;6.10;80.00;;;5.28;63.86;94208.63;5087271;28;20236;-78
2020/12/25 00:12:00;;;;;;;1.40;1.30;;;6.10;80.10;;;5.30;64.07;94211.88;5087750;28;20313;-79
2020/12/25 00:14:27;;;;;;;1.40;1.30;;;6.20;80.20;;;5.31;64.12;94208.31;5055777;28;20264;-78
2020/12/25 00:16:58;;;;;;;1.27;1.10;;;6.10;80.20;;;5.33;63.75;94221.13;5058946;28;20282;-79
2020/12/25 00:19:26;;;;;;;1.17;1.17;;;6.10;80.20;;;5.35;63.78;94222.56;5087727;28;20242;-79
2020/12/25 00:21:53;;;;;;;1.50;1.40;;;6.20;80.30;;;5.36;64.04;94226.78;5073985;28;20183;-79
2020/12/25 00:24:19;;;;;;;1.50;1.40;;;6.20;80.30;;;5.34;64.10;94220.13;5057704;28;20222;-79
2020/12/25 00:26:46;;;;;;;2.55;1.40;;;6.10;80.30;;;5.36;64.00;94216.38;5073974;28;20186;-78
2020/12/25 00:29:13;;;;;;;1.25;1.15;;;6.30;80.40;;;5.38;64.15;94206.63;5074157;28;20313;-79
2020/12/25 00:31:40;;;;;;;1.20;1.20;;;6.20;80.40;;;5.38;64.29;94209.22;5090848;28;20262;-79
2020/12/25 00:34:10;;;;;;;1.20;1.20;;;6.20;80.40;;;5.40;64.12;94215.03;5073661;28;20224;-79
2020/12/25 00:36:40;;;;;;;1.40;1.30;;;6.20;80.30;;;5.41;63.84;94211.44;5057683;28;20210;-79
2020/12/25 00:39:16;;;;;;;1.50;1.40;;;6.20;80.30;;;5.42;64.13;94212.25;5054124;28;20259;-79
2020/12/25 00:41:49;;;;;;;1.70;1.50;;;6.20;80.30;;;5.42;64.39;94214.84;5064341;28;20535;-79
2020/12/25 00:44:18;;;;;;;1.33;1.23;;;6.30;80.40;;;5.43;63.90;94219.88;5074415;28;20234;-79
2020/12/25 00:46:47;;;;;;;1.63;1.52;;;6.20;80.30;;;5.44;64.17;94224.09;5057761;28;20205;-79
2020/12/25 00:49:19;;;;;;;1.67;1.58;;;6.20;80.40;;;5.46;64.05;94221.31;5074943;28;20726;-79
2020/12/25 00:51:47;;;;;;;1.70;1.60;;;6.20;80.30;;;5.48;64.22;94232.38;5073503;28;20222;-79
2020/12/25 00:54:16;;;;;;;1.95;1.70;;;6.30;80.40;;;5.49;64.22;94233.97;5058500;28;20237;-79
2020/12/25 00:56:53;;;;;;;1.90;1.67;;;6.30;80.40;;;5.46;63.96;94223.94;5090273;28;20546;-78
2020/12/25 00:59:31;;;;;;;2.47;1.90;;;6.30;80.30;;;5.49;64.04;94239.16;5072171;28;20225;-79
2020/12/25 01:01:57;;;;;;;1.80;1.70;;;6.30;80.30;;;5.47;63.84;94254.16;5070596;28;20210;-79
2020/12/25 01:04:24;;;;;;;2.03;1.88;;;6.30;80.30;;;5.47;63.87;94258.53;5072804;28;20223;-78
2020/12/25 01:06:51;;;;;;;1.80;1.70;;;6.30;80.30;;;5.45;64.15;94259.50;5057454;28;20661;-79
2020/12/25 01:09:18;;;;;;;2.17;1.98;;;6.30;80.20;;;5.44;64.08;94265.72;5064176;28;20318;-79
2020/12/25 01:11:45;;;;;;;2.67;2.40;;;6.30;80.20;;;5.41;64.04;94263.47;5072123;28;20220;-78
2020/12/25 01:14:11;;;;;;;2.50;2.30;;;6.30;80.20;;;5.40;63.97;94253.25;5074004;28;20222;-79
2020/12/25 01:16:40;;;;;;;2.80;2.38;;;6.30;80.10;;;5.37;63.81;94262.22;5077607;28;20260;-79
2020/12/25 01:19:06;;;;;;;2.80;2.50;;;6.20;80.00;;;5.33;64.11;94260.13;5077554;28;20234;-78
2020/12/25 01:21:33;;;;;;;3.45;3.15;;;6.20;80.00;;;5.30;63.52;94261.28;5077490;28;20203;-79
2020/12/25 01:24:00;;;;;;;3.05;2.75;;;6.20;79.90;;;5.27;63.42;94254.66;5073215;28;20238;-78
2020/12/25 01:26:28;;;;;;;3.20;2.88;;;6.20;80.60;;;5.25;63.47;94258.41;5073818;28;20207;-79
2020/12/25 01:29:03;;;;;;;2.80;2.60;;;6.10;79.80;;;5.23;63.59;94265.56;5073720;28;20249;-79
2020/12/25 01:31:30;;;;;;;3.10;2.80;;;6.10;79.90;;;5.21;63.64;94270.94;5067683;28;20214;-79
2020/12/25 01:33:57;;;;;;;3.53;3.10;;;6.10;79.90;;;5.19;63.83;94272.91;5077259;28;20675;-78
2020/12/25 01:36:24;;;;;;;2.78;2.53;;;6.10;79.90;;;5.15;63.55;94266.44;5077477;28;20211;-79
2020/12/25 01:38:51;;;;;;;3.00;2.70;;;6.10;80.00;;;5.17;64.02;94277.47;5076717;28;20737;-78
2020/12/25 01:41:18;;;;;;;3.10;2.80;;;6.00;79.90;;;5.16;63.58;94275.84;5060869;28;20202;-78
2020/12/25 01:43:45;;;;;;;2.63;2.42;;;6.00;80.00;;;5.17;63.84;94269.66;5093907;28;20221;-79
2020/12/25 01:46:13;;;;;;;2.75;2.55;;;6.00;80.00;;;5.17;63.80;94274.84;5076903;28;20198;-78
2020/12/25 01:48:41;;;;;;;3.20;2.90;;;6.00;80.00;;;5.17;63.62;94269.66;5076428;28;20206;-78
2020/12/25 01:51:13;;;;;;;3.05;2.75;;;6.00;80.00;;;5.16;63.76;94275.84;5093627;28;20217;-78
2020/12/25 01:53:43;;;;;;;3.40;3.10;;;6.00;80.00;;;5.15;64.03;94266.44;5077060;28;20669;-78
2020/12/25 01:56:10;;;;;;;3.47;3.17;;;6.00;80.00;;;5.13;63.84;94258.00;5092297;28;20187;-77
2020/12/25 01:58:39;;;;;;;3.63;3.22;;;6.00;80.00;;;5.10;64.18;94253.13;5076750;28;20297;-78
2020/12/25 02:01:06;;;;;;;3.50;3.20;;;6.00;80.00;;;5.12;63.75;94251.19;5076796;28;20565;-77
2020/12/25 02:03:33;;;;;;;3.28;2.97;;;6.00;80.00;;;5.10;64.08;94253.97;5076882;28;20212;-78
2020/12/25 02:05:59;;;;;;;4.22;3.50;;;5.90;80.00;;;5.08;63.91;94244.72;5094590;28;20297;-78
2020/12/25 02:08:26;;;;;;;3.92;3.10;;;6.00;80.00;;;5.07;63.75;94248.31;5093654;28;20199;-78
2020/12/25 02:10:53;;;;;;;3.40;3.10;;;5.90;80.00;;;5.05;63.94;94251.06;5075114;28;20234;-78
2020/12/25 02:13:20;;;;;;;3.10;2.80;;;5.90;80.00;;;5.06;63.95;94249.28;5071888;28;20203;-78
2020/12/25 02:15:47;;;;;;;3.75;3.10;;;5.90;80.80;;;5.05;63.96;94256.25;5072537;28;20267;-79
2020/12/25 02:18:14;;;;;;;3.80;2.85;;;5.90;80.00;;;5.04;63.61;94246.03;5056824;28;20204;-79
2020/12/25 02:20:41;;;;;;;3.47;2.92;;;5.90;80.00;;;5.05;63.76;94256.25;5071877;28;20227;-79
2020/12/25 02:23:08;;;;;;;3.55;3.25;;;5.90;80.00;;;5.03;63.66;94253.03;5056402;28;20203;-79
2020/12/25 02:25:36;;;;;;;4.30;3.20;;;5.90;80.10;;;5.04;64.15;94248.63;5072368;28;20227;-79
2020/12/25 02:28:03;;;;;;;4.53;3.70;;;5.90;80.10;;;5.01;64.12;94249.00;5055346;28;20203;-79
2020/12/25 02:30:32;;;;;;;3.55;3.25;;;5.90;80.00;;;5.01;63.94;94244.59;5067199;28;20349;-78
2020/12/25 02:32:59;;;;;;;3.80;3.40;;;5.90;80.00;;;5.00;63.62;94255.19;5088022;28;20649;-78
2020/12/25 02:35:26;;;;;;;4.28;3.60;;;5.80;80.00;;;4.97;63.96;94251.13;5068742;28;20714;-78
2020/12/25 02:37:54;;;;;;;4.20;3.22;;;5.80;80.80;;;5.00;63.73;94262.97;5048296;28;20540;-79
2020/12/25 02:40:21;;;;;;;3.97;3.33;;;5.80;80.00;;;4.99;64.10;94262.16;5052239;28;20245;-79
2020/12/25 02:42:48;;;;;;;4.15;3.72;;;5.80;80.00;;;4.97;63.77;94264.13;5066965;28;20207;-79
2020/12/25 02:45:16;;;;;;;3.95;3.33;;;5.80;80.00;;;4.99;63.73;94264.75;5088290;28;20214;-78
2020/12/25 02:47:43;;;;;;;4.05;3.38;;;5.80;80.00;;;4.97;63.91;94270.13;5056295;28;20214;-79
2020/12/25 02:50:10;;;;;;;3.45;2.90;;;5.80;80.00;;;4.92;63.90;94262.06;5069084;28;20238;-79
2020/12/25 02:52:37;;;;;;;3.85;3.42;;;5.80;80.00;;;4.98;64.26;94265.75;5091470;28;20261;-79
2020/12/25 02:55:04;;;;;;;6.45;3.05;;;5.80;80.80;;;4.98;63.75;94265.75;5043035;28;20223;-81
2020/12/25 02:57:31;;;;;;;3.83;3.30;;;5.80;80.10;;;4.95;64.07;94264.28;5079819;28;20198;-79
2020/12/25 02:59:57;;;;;;;3.42;3.13;;;5.80;80.10;;;4.97;64.07;94277.91;5065719;28;20309;-78
2020/12/25 03:02:24;;;;;;;4.95;3.72;;;5.80;80.10;;;4.97;63.60;94277.91;5071142;28;20746;-79
2020/12/25 03:04:51;;;;;;;4.63;3.80;;;5.80;80.00;;;4.97;63.94;94274.53;5085121;28;20603;-79
2020/12/25 03:07:18;;;;;;;4.63;3.55;;;5.80;80.00;;;4.94;63.73;94269.66;5070503;28;20274;-78
2020/12/25 03:09:44;;;;;;;4.75;3.90;;;5.80;80.00;;;4.89;63.97;94272.78;5084189;28;20305;-78
2020/12/25 03:12:12;;;;;;;4.03;3.63;;;5.80;80.00;;;4.92;63.84;94276.81;5084740;28;20214;-79
2020/12/25 03:14:40;;;;;;;4.13;3.63;;;5.80;80.00;;;4.85;63.82;94274.09;5069736;28;20635;-78
2020/12/25 03:17:08;;;;;;;4.40;4.00;;;5.80;80.00;;;4.83;63.97;94272.66;5086301;28;20200;-79
2020/12/25 03:19:34;;;;;;;5.43;4.45;;;5.70;79.90;;;4.81;63.78;94281.44;5054133;28;20222;-79
2020/12/25 03:22:01;;;;;;;4.97;4.25;;;5.70;80.00;;;4.85;63.73;94283.72;5081678;28;20294;-78
2020/12/25 03:24:28;;;;;;;4.35;3.95;;;5.70;80.00;;;4.85;63.91;94283.72;5072054;28;20301;-79
2020/12/25 03:26:54;;;;;;;3.95;3.55;;;5.70;80.00;;;4.86;63.95;94283.53;5072288;28;20206;-78
2020/12/25 03:29:21;;;;;;;3.90;3.50;;;5.70;80.10;;;4.84;64.04;94276.88;5083796;28;21350;-79
2020/12/25 03:31:48;;;;;;;4.15;3.75;;;5.70;80.00;;;4.85;63.89;94278.50;5055213;28;20675;-78
2020/12/25 03:34:16;;;;;;;4.72;3.88;;;5.70;80.00;;;4.88;63.74;94280.75;5086744;28;20764;-79
2020/12/25 03:36:43;;;;;;;3.97;3.58;;;5.70;80.10;;;4.89;64.08;94280.56;5087732;28;20187;-80
2020/12/25 03:39:10;;;;;;;4.22;3.60;;;5.70;80.20;;;4.90;63.86;94278.78;5072653;28;20759;-80
2020/12/25 03:41:37;;;;;;;4.63;3.95;;;5.70;80.20;;;4.92;64.02;94277.63;5056713;28;20198;-79
2020/12/25 03:44:04;;;;;;;4.53;4.13;;;5.80;80.20;;;4.93;63.92;94276.66;5089517;28;20211;-79
2020/12/25 03:46:37;;;;;;;3.88;3.47;;;5.70;80.20;;;4.94;63.76;94267.06;5056325;28;20198;-79
2020/12/25 03:49:06;;;;;;;4.95;3.33;;;5.70;80.20;;;4.95;64.04;94268.69;5073523;28;20207;-79
2020/12/25 03:51:33;;;;;;;4.20;3.80;;;5.70;80.20;;;4.97;63.62;94269.34;5073686;28;20318;-80
2020/12/25 03:54:01;;;;;;;3.80;3.40;;;5.70;80.20;;;4.96;64.22;94265.91;5074894;28;20240;-79
2020/12/25 03:56:28;;;;;;;4.40;3.63;;;5.80;80.20;;;4.97;63.94;94266.72;5074209;28;20199;-79
2020/12/25 03:58:55;;;;;;;4.35;3.47;;;5.80;80.20;;;4.97;64.04;94275.31;5074683;28;20244;-79
2020/12/25 04:01:22;;;;;;;3.90;3.50;;;5.80;80.20;;;4.97;64.10;94277.13;5074498;28;20222;-79
2020/12/25 04:03:48;;;;;;;4.47;3.80;;;5.80;80.20;;;4.95;63.92;94272.09;5070622;28;20202;-79
2020/12/25 04:06:15;;;;;;;4.03;3.47;;;5.80;80.20;;;4.95;63.80;94279.88;5052301;28;20195;-79
2020/12/25 04:08:44;;;;;;;3.78;3.28;;;5.80;80.20;;;4.96;63.77;94278.91;5070950;28;20198;-80
2020/12/25 04:11:12;;;;;;;4.05;3.65;;;5.80;80.20;;;4.95;64.17;94279.09;5088015;28;20229;-80
2020/12/25 04:13:39;;;;;;;4.28;3.88;;;5.80;80.10;;;4.88;63.98;94272.94;5058169;28;20198;-79
2020/12/25 04:16:06;;;;;;;3.67;3.25;;;5.80;80.10;;;4.88;64.04;94278.16;5058029;28;20220;-79
2020/12/25 04:18:32;;;;;;;5.20;3.95;;;5.70;80.00;;;4.86;64.13;94293.91;5057961;28;20195;-79
2020/12/25 04:21:00;;;;;;;4.45;3.92;;;5.70;80.00;;;4.83;63.96;94293.44;5073265;28;20753;-79
2020/12/25 04:23:27;;;;;;;4.32;3.92;;;5.80;80.00;;;4.78;64.09;94296.56;5057633;28;20199;-79
2020/12/25 04:25:55;;;;;;;4.95;4.45;;;5.70;80.00;;;4.75;64.34;94291.72;5073813;28;20219;-79
2020/12/25 04:28:23;;;;;;;5.80;4.50;;;5.70;80.00;;;4.72;63.81;94292.06;5057760;28;20285;-80
2020/12/25 04:30:50;;;;;;;5.57;4.53;;;5.70;80.00;;;4.67;64.18;94289.97;5091313;28;20698;-79
2020/12/25 04:33:19;;;;;;;7.07;4.80;;;5.70;80.00;;;4.66;63.96;94290.94;5074560;28;20683;-78
2020/12/25 04:35:46;;;;;;;5.70;4.60;;;5.60;80.00;;;4.66;64.02;94303.91;5073434;28;20249;-80
2020/12/25 04:38:13;;;;;;;6.40;5.20;;;5.60;80.00;;;4.60;64.32;94295.03;5073857;28;20206;-79
2020/12/25 04:40:43;;;;;;;6.05;4.50;;;5.60;79.40;;;4.61;64.42;94303.63;5075822;28;20306;-80
2020/12/25 04:43:13;;;;;;;6.50;4.85;;;5.60;80.10;;;4.61;64.28;94303.63;5054186;28;20207;-79
2020/12/25 04:45:40;;;;;;;5.45;4.68;;;5.60;80.10;;;4.53;64.50;94296.69;5051612;28;20297;-80
2020/12/25 04:48:07;;;;;;;5.05;4.50;;;5.50;80.10;;;4.48;64.25;94294.59;5073295;28;20202;-79
2020/12/25 04:50:35;;;;;;;5.43;4.57;;;5.50;80.10;;;4.52;64.28;94305.47;5093104;28;20305;-80
2020/12/25 04:53:03;;;;;;;5.35;4.45;;;5.50;80.20;;;4.51;64.43;94303.03;5094631;28;20226;-80
2020/12/25 04:55:30;;;;;;;5.80;4.40;;;5.50;80.20;;;4.51;64.44;94297.84;5090702;28;20207;-79
2020/12/25 04:57:57;;;;;;;6.57;4.70;;;5.60;80.30;;;4.51;64.39;94305.63;5041467;28;20222;-79
2020/12/25 05:00:25;;;;;;;6.45;5.03;;;5.40;80.20;;;4.44;64.41;94292.50;5093841;28;20202;-79
2020/12/25 05:02:52;;;;;;;5.60;4.70;;;5.40;80.20;;;4.48;64.54;94305.00;5078198;28;20198;-80
2020/12/25 05:05:30;;;;;;;6.10;4.60;;;5.40;80.30;;;4.47;64.24;94305.16;5057215;28;20219;-80
2020/12/25 05:07:58;;;;;;;5.78;4.60;;;5.40;80.40;;;4.47;64.26;94307.75;5074658;28;20199;-80
2020/12/25 05:10:29;;;;;;;5.85;4.47;;;5.40;80.30;;;4.47;64.57;94307.75;5085987;28;20246;-80
2020/12/25 05:12:57;;;;;;;5.45;4.70;;;5.40;80.40;;;4.46;64.47;94303.53;5061213;28;20304;-80
2020/12/25 05:15:25;;;;;;;6.13;4.95;;;5.40;80.40;;;4.43;64.73;94306.47;5075416;28;20223;-79
2020/12/25 05:17:56;;;;;;;7.05;5.20;;;5.40;80.50;;;4.44;64.93;94308.91;5062257;28;20217;-80
2020/12/25 05:20:24;;;;;;;5.63;4.78;;;5.40;80.60;;;4.42;64.65;94312.63;5110776;28;20253;-80
2020/12/25 05:22:51;;;;;;;5.38;4.63;;;5.30;80.50;;;4.47;64.65;94316.34;5077307;28;20183;-79
2020/12/25 05:25:19;;;;;;;6.45;5.00;;;5.40;80.60;;;4.45;64.63;94309.72;5077555;28;20259;-80
2020/12/25 05:27:46;;;;;;;6.55;5.15;;;5.40;80.60;;;4.49;64.56;94318.78;5077140;28;20289;-79
2020/12/25 05:30:14;;;;;;;5.93;4.60;;;5.40;80.60;;;4.52;64.65;94328.00;5093546;28;20226;-80
2020/12/25 05:32:44;;;;;;;5.60;4.63;;;5.40;80.70;;;4.52;64.58;94320.22;5060626;28;20262;-80
2020/12/25 05:35:14;;;;;;;5.75;4.63;;;5.40;80.60;;;4.51;64.66;94319.41;5077386;28;20203;-79
2020/12/25 05:37:41;;;;;;;5.90;4.57;;;5.40;80.60;;;4.53;64.74;94327.03;5077273;28;20270;-80
2020/12/25 05:40:09;;;;;;;5.80;4.63;;;5.40;80.60;;;4.53;64.51;94335.66;5092167;28;20250;-80
2020/12/25 05:42:50;;;;;;;4.82;4.28;;;5.40;80.60;;;4.54;64.66;94334.69;5093832;28;20195;-79
2020/12/25 05:45:18;;;;;;;5.63;4.30;;;5.40;80.80;;;4.48;64.48;94330.16;5077357;28;20221;-79
2020/12/25 05:48:04;;;;;;;7.15;5.00;;;5.40;80.70;;;4.50;64.56;94338.56;5076871;28;20194;-79
2020/12/25 05:50:32;;;;;;;5.78;4.85;;;5.40;80.80;;;4.52;64.52;94347.00;5076950;28;20227;-80
2020/12/25 05:52:59;;;;;;;6.13;4.80;;;5.40;80.60;;;4.53;64.50;94345.22;5093811;28;20614;-80
2020/12/25 05:55:27;;;;;;;6.13;4.50;;;5.40;80.60;;;4.52;64.46;94348.78;5093668;28;20206;-80
2020/12/25 05:57:55;;;;;;;5.88;4.80;;;5.40;80.70;;;4.52;64.76;94352.19;5072551;28;20287;-79
2020/12/25 06:00:26;;;;;;;5.80;4.70;;;5.40;80.70;;;4.53;64.47;94353.00;5073580;28;20211;-79
2020/12/25 06:02:56;;;;;;;5.55;4.57;;;5.40;80.70;;;4.52;64.64;94351.38;5074818;28;20203;-79
2020/12/25 06:05:25;;;;;;;5.45;4.78;;;5.40;80.70;;;4.51;64.72;94360.16;5073580;28;20231;-80
2020/12/25 06:07:57;;;;;;;6.40;4.85;;;5.40;80.70;;;4.53;64.73;94366.00;5073325;28;20195;-80
2020/12/25 06:10:29;;;;;;;5.90;4.93;;;5.40;80.70;;;4.53;64.56;94366.81;5056119;28;20223;-79
2020/12/25 06:12:57;;;;;;;6.38;4.70;;;5.40;80.70;;;4.56;64.75;94370.84;5056438;28;20223;-79
2020/12/25 06:15:33;;;;;;;6.13;5.20;;;5.40;80.70;;;4.55;64.75;94374.44;5090407;28;20256;-79
2020/12/25 06:18:39;;;;;;;6.68;4.60;;;5.40;80.80;;;4.57;64.53;94372.47;5076772;28;20187;-80
2020/12/25 06:21:21;;;;;;;7.25;4.65;;;5.40;80.90;;;4.57;64.71;94377.69;5076466;28;20223;-79
2020/12/25 06:23:50;;;;;;;5.05;4.38;;;5.40;80.80;;;4.58;64.65;94381.91;5060670;28;20253;-79
2020/12/25 06:26:19;;;;;;;5.85;4.78;;;5.40;80.70;;;4.58;64.54;94380.09;5056281;28;20196;-79
2020/12/25 06:28:48;;;;;;;6.35;5.13;;;5.40;80.90;;;4.64;64.92;94389.00;5072685;28;20198;-79
2020/12/25 06:31:37;;;;;;;5.20;4.40;;;5.50;80.90;;;4.63;64.57;94385.59;5056554;28;20211;-80
2020/12/25 06:34:04;;;;;;;5.88;4.60;;;5.50;81.00;;;4.65;64.71;94385.41;5086944;28;20219;-80
2020/12/25 06:36:32;;;;;;;6.47;5.18;;;5.40;80.80;;;4.65;64.75;94383.66;5059475;28;20670;-80
2020/12/25 06:38:59;;;;;;;5.72;4.97;;;5.50;80.90;;;4.66;64.89;94381.84;5092784;28;20255;-79
2020/12/25 06:41:27;;;;;;;6.45;5.15;;;5.50;80.80;;;4.66;64.63;94384.44;5063114;28;20194;-78
2020/12/25 06:43:55;;;;;;;5.68;4.40;;;5.50;80.80;;;4.62;64.96;94383.97;5059335;28;20206;-79
2020/12/25 06:46:33;;;;;;;5.57;4.53;;;5.50;80.90;;;4.70;64.55;94392.72;5075586;28;20191;-79
2020/12/25 06:49:08;;;;;;;6.18;4.95;;;5.50;81.10;;;4.72;64.46;94395.97;5064594;28;20191;-79
2020/12/25 06:51:44;;;;;;;6.25;4.60;;;5.50;81.00;;;4.72;64.67;94388.16;5076262;28;20217;-79
2020/12/25 06:54:24;;;;;;;6.20;5.05;;;5.50;80.90;;;4.73;64.76;94393.19;5056050;28;20223;-78
2020/12/25 06:56:53;;;;;;;6.13;5.00;;;5.50;80.90;;;4.75;64.48;94393.03;5073031;28;20207;-79
2020/12/25 06:59:22;;;;;;;6.03;4.82;;;5.50;80.90;;;4.72;64.66;94388.97;5057336;28;20325;-78
2020/12/25 07:01:52;;;;;;;5.45;4.50;;;5.50;80.80;;;4.77;64.40;94393.66;5092264;28;20206;-79
2020/12/25 07:04:30;;;;;;;6.55;5.05;;;5.60;80.90;;;4.77;64.63;94399.69;5058339;28;20218;-79
2020/12/25 07:07:06;;;;;;;9.27;5.93;;;5.60;80.90;;;4.77;64.53;94397.09;5091815;28;20258;-79
2020/12/25 07:09:46;;;;;;;5.57;4.80;;;5.60;80.90;;;4.79;64.61;94404.69;5070110;28;20570;-79
2020/12/25 07:12:18;;;;;;;5.63;4.97;;;5.60;80.90;;;4.77;64.59;94404.88;5053263;28;20234;-79
2020/12/25 07:14:45;;;;;;;5.88;4.80;;;5.60;80.90;;;4.78;64.66;94410.88;5073361;28;20222;-79
2020/12/25 07:17:12;;;;;;;6.28;4.88;;;5.60;80.90;;;4.79;64.79;94413.28;5074398;28;20191;-79
2020/12/25 07:19:39;;;;;;;6.28;5.03;;;5.60;81.00;;;4.84;64.37;94418.00;5073875;28;20223;-79
2020/12/25 07:22:07;;;;;;;6.28;5.32;;;5.60;80.90;;;4.85;64.52;94414.41;5074720;28;20193;-78
2020/12/25 07:24:40;;;;;;;6.90;5.07;;;5.60;80.90;;;4.85;64.63;94417.03;5091281;28;20214;-79
2020/12/25 07:27:09;;;;;;;6.60;5.38;;;5.60;80.90;;;4.86;64.56;94418.66;5069010;28;20199;-78
2020/12/25 07:29:41;;;;;;;7.38;5.10;;;5.70;81.30;;;4.86;64.46;94425.63;5075016;28;20233;-79
2020/12/25 07:32:10;;;;;;;7.75;5.65;;;5.60;80.80;;;4.83;64.61;94428.56;5074714;28;20234;-79
2020/12/25 07:34:36;;;;;;;6.65;5.63;;;5.60;80.80;;;4.81;64.54;94436.53;5074907;28;20702;-79
2020/12/25 07:37:04;;;;;;;6.43;5.10;;;5.70;80.90;;;4.84;64.56;94435.38;5058078;28;20203;-78
2020/12/25 07:39:31;;;;;;;6.07;5.10;;;5.60;80.80;;;4.84;64.63;94440.59;5074194;28;20218;-79
2020/12/25 07:41:58;;;;;;;5.75;5.13;;;5.70;80.90;;;4.83;64.70;94438.94;5092777;28;20688;-78
2020/12/25 07:44:25;;;;;;;6.45;4.72;;;5.70;80.90;;;4.88;64.46;94440.09;5074756;28;20214;-79
2020/12/25 07:46:52;;;;;;;5.60;4.80;;;5.60;80.80;;;4.88;64.73;94442.69;5074879;28;20289;-78
2020/12/25 07:49:19;;;;;;;6.10;4.85;;;5.70;80.90;;;4.90;64.62;94447.69;5055670;28;20320;-78
2020/12/25 07:51:50;;;;;;;5.90;5.30;;;5.70;80.90;;;4.90;64.69;94452.91;5072991;28;20279;-78
2020/12/25 07:54:17;;;;;;;7.22;4.60;;;5.70;80.80;;;4.88;64.39;94445.28;5055740;28;20276;-77
2020/12/25 07:56:44;;;;;;;5.07;4.32;;;5.70;80.80;;;4.90;64.95;94451.09;5069651;28;20190;-79
2020/12/25 07:59:12;;;;;;;5.03;4.32;;;5.70;80.90;;;4.91;64.41;94451.94;5089128;28;20240;-77
2020/12/25 08:01:39;;;;;;;5.85;4.80;;;5.70;80.80;;;4.92;64.42;94454.34;5052508;28;20282;-79
2020/12/25 08:04:07;;;;;;;4.88;4.38;;;5.70;80.80;;;4.92;64.76;94451.75;5078538;28;20614;-79
2020/12/25 08:06:35;;;;;;;4.82;4.35;;;5.70;80.80;;;4.92;64.61;94450.91;5074212;28;20606;-78
2020/12/25 08:09:10;;;;;;;5.32;4.13;;;5.70;80.80;;;4.94;64.53;94462.78;5073616;28;20656;-80
2020/12/25 08:11:40;;;;;;;4.88;4.15;;;5.70;80.90;;;4.96;64.63;94465.22;5073352;28;20222;-80
2020/12/25 08:14:11;;;;;;;5.07;4.40;;;5.70;80.90;;;4.93;64.44;94458.56;5064480;28;20219;-80
2020/12/25 08:16:42;;;;;;;4.40;3.92;;;5.70;80.90;;;5.00;64.69;94465.69;5090828;28;20218;-80
2020/12/25 08:19:09;;;;;;;5.10;4.40;;;5.70;80.90;;;5.01;64.74;94468.13;5073725;28;20592;-79
2020/12/25 08:21:38;;;;;;;5.55;4.53;;;5.80;81.00;;;5.00;64.60;94456.09;5074371;28;20218;-81
2020/12/25 08:24:07;;;;;;;5.07;4.28;;;5.80;81.00;;;5.01;64.65;94459.53;5074876;28;20228;-82
2020/12/25 08:26:40;;;;;;;5.35;4.43;;;5.80;80.90;;;5.06;64.12;94476.22;5077722;28;20194;-80
2020/12/25 08:29:08;;;;;;;5.35;4.82;;;5.80;81.00;;;5.10;64.92;94468.88;5061382;28;20232;-80
2020/12/25 08:31:40;;;;;;;4.90;4.40;;;5.80;81.00;;;5.14;64.71;94483.19;5061026;28;20635;-79
2020/12/25 08:34:14;;;;;;;5.63;4.60;;;5.80;81.10;;;5.15;64.63;94487.41;5058599;28;20692;-79
2020/12/25 08:36:42;;;;;;;6.22;4.90;;;5.90;81.10;;;5.18;64.42;94491.47;5095305;28;20188;-80
2020/12/25 08:39:09;;;;;;;5.90;5.05;;;5.90;81.00;;;5.21;64.58;94496.31;5095395;28;20210;-80
2020/12/25 08:41:37;;;;;;;5.78;4.57;;;5.90;81.00;;;5.23;64.80;94500.34;5079865;28;20273;-80
2020/12/25 08:44:12;;;;;;;5.07;4.50;;;6.00;81.10;;;5.25;64.76;94501.00;5074078;28;20662;-80
2020/12/25 08:46:39;;;;;;;7.28;5.00;;;6.00;81.10;;;5.27;64.50;94509.47;5069880;28;20802;-80
2020/12/25 08:49:07;;;;;;;6.95;5.15;;;6.00;81.10;;;5.27;64.43;94511.22;5057967;28;20826;-79
2020/12/25 08:51:38;;;;;;;6.35;5.30;;;6.00;81.00;;;5.27;64.25;94517.25;5074656;28;20318;-79
2020/12/25 08:54:05;;;;;;;7.32;5.70;;;6.00;80.90;;;5.26;64.43;94517.41;5100744;28;20305;-80
2020/12/25 08:56:35;;;;;;;6.78;5.50;;;6.00;80.90;;;5.28;64.64;94520.66;5077335;28;20213;-80
2020/12/25 08:59:07;;;;;;;7.03;5.88;;;6.00;80.90;;;5.27;64.66;94526.84;5077571;28;20653;-80
2020/12/25 09:01:38;;;;;;;7.07;5.65;;;6.10;80.90;;;5.26;64.15;94528.63;5077980;28;20364;-79
2020/12/25 09:04:15;;;;;;;6.03;5.03;;;6.10;80.90;;;5.27;64.43;94532.03;5093335;28;20215;-78
2020/12/25 09:06:42;;;;;;;7.40;6.13;;;6.10;80.80;;;5.27;64.70;94535.47;5077493;28;20198;-79
2020/12/25 09:09:27;;;;;;;6.75;5.63;;;6.10;80.90;;;5.30;64.53;94542.13;5064963;28;20229;-79
2020/12/25 09:11:54;;;;;;;6.72;5.28;;;6.10;80.90;;;5.32;64.66;94537.53;5063755;28;20223;-79
2020/12/25 09:14:20;;;;;;;6.43;5.78;;;6.10;80.90;;;5.34;64.43;94537.38;5079100;28;20223;-80
2020/12/25 09:16:47;;;;;;;7.38;5.60;;;6.10;80.90;;;5.33;64.59;94539.16;5072458;28;20553;-80
2020/12/25 09:19:14;;;;;;;6.53;5.72;;;6.20;81.10;;;5.34;64.34;94540.78;5071229;28;20247;-80
2020/12/25 09:21:41;;;;;;;6.82;5.65;;;6.10;80.90;;;5.36;64.59;94543.22;5040056;28;20234;-80
2020/12/25 09:24:08;;;;;;;7.05;5.63;;;6.10;80.90;;;5.31;64.78;94548.94;5073619;28;20239;-80
2020/12/25 09:26:35;;;;;;;10.77;6.38;;;6.30;81.00;;;5.35;64.72;94547.63;5073259;28;20203;-80
2020/12/25 09:29:02;;;;;;;6.32;5.45;;;6.20;81.00;;;5.35;64.86;94547.63;5067477;28;20284;-79
2020/12/25 09:31:28;;;;;;;6.45;5.45;;;6.20;81.00;;;5.41;64.94;94559.16;5077303;28;20190;-80
2020/12/25 09:33:55;;;;;;;6.03;5.20;;;6.20;81.00;;;5.44;64.58;94553.59;5060717;28;20201;-81
2020/12/25 09:36:22;;;;;;;7.25;5.95;;;6.20;81.10;;;5.43;64.65;94552.78;5076941;28;20202;-82
2020/12/25 09:38:49;;;;;;;7.40;5.47;;;6.20;80.90;;;5.43;64.30;94557.16;5076831;28;20187;-79
2020/12/25 09:41:16;;;;;;;6.28;5.50;;;6.20;80.90;;;5.43;64.40;94560.59;5093862;28;20237;-80
2020/12/25 09:43:43;;;;;;;6.15;5.35;;;6.20;80.90;;;5.42;64.60;94558.13;5073899;28;20207;-81
2020/12/25 09:46:10;;;;;;;7.30;5.30;;;6.30;81.00;;;5.44;64.82;94562.22;5066305;28;20248;-80
2020/12/25 09:48:38;;;;;;;7.63;5.95;;;6.20;80.90;;;5.43;64.26;94563.19;5058855;28;20214;-79
2020/12/25 09:51:05;;;;;;;7.07;5.43;;;6.20;80.90;;;5.43;64.62;94562.38;5074653;28;20215;-80
2020/12/25 09:53:32;;;;;;;6.57;5.78;;;6.20;80.90;;;5.44;64.47;94558.78;5073754;28;20696;-79
2020/12/25 09:55:59;;;;;;;6.70;5.57;;;6.30;81.00;;;5.41;64.44;94561.75;5092367;28;20215;-79
2020/12/25 09:58:26;;;;;;;6.22;5.18;;;6.30;80.90;;;5.43;64.46;94572.78;5092071;28;20232;-80
2020/12/25 10:00:53;;;;;;;6.05;5.32;;;6.20;80.90;;;5.40;64.90;94562.72;5072214;28;20215;-80
2020/12/25 10:03:20;;;;;;;5.38;4.85;;;6.20;80.90;;;5.44;64.47;94569.19;5060327;28;20191;-80
2020/12/25 10:05:47;;;;;;;7.18;5.75;;;6.20;80.90;;;5.46;64.88;94567.25;5076664;28;20242;-80
2020/12/25 10:08:14;;;;;;;7.40;5.68;;;6.20;80.90;;;5.46;64.70;94572.44;5059884;28;20202;-80
2020/12/25 10:10:41;;;;;;;6.57;5.85;;;6.30;81.00;;;5.43;64.81;94568.41;5092484;28;20226;-79
2020/12/25 10:13:08;;;;;;;5.70;5.07;;;6.20;81.00;;;5.44;64.52;94577.00;5057435;28;20223;-80
2020/12/25 10:15:35;;;;;;;5.57;4.85;;;6.30;81.00;;;5.44;64.75;94579.59;5075695;28;20222;-80
2020/12/25 10:18:02;;;;;;;5.85;5.07;;;6.20;81.00;;;5.44;64.74;94579.59;5075590;28;20195;-80
2020/12/25 10:20:29;;;;;;;5.78;5.18;;;6.30;81.00;;;5.38;64.67;94564.66;5060215;28;20227;-80
2020/12/25 10:22:57;;;;;;;6.20;5.30;;;6.30;80.90;;;5.41;64.67;94579.94;5076644;28;20278;-80
2020/12/25 10:25:24;;;;;;;6.45;5.45;;;6.20;80.80;;;5.42;64.32;94576.34;5076750;28;20218;-80
2020/12/25 10:27:51;;;;;;;5.30;4.78;;;6.20;80.90;;;5.42;64.92;94569.38;5092674;28;20213;-81
2020/12/25 10:30:17;;;;;;;5.30;4.60;;;6.20;80.90;;;5.43;64.83;94571.00;5071413;28;20209;-80
2020/12/25 10:32:44;;;;;;;5.25;4.50;;;6.30;81.00;;;5.44;64.61;94567.44;5075862;28;20637;-82
2020/12/25 10:35:12;;;;;;;6.05;4.13;;;6.30;81.10;;;5.49;64.61;94576.50;5074588;28;20225;-81
2020/12/25 10:37:38;;;;;;;4.95;4.22;;;6.20;81.00;;;5.49;64.69;94576.50;5092986;28;20203;-79
2020/12/25 10:40:25;;;;;;;4.97;4.07;;;6.30;81.00;;;5.45;64.62;94582.03;5070649;28;20222;-80